METAR AND TAF INFORMATION
METAR FOR KBVX
ADDS - METARS form results

(1536 UTC 17 February 2019)
Data provider http://aviationweather.gov/metar/data/
 
METAR text: KBVX 171517Z AUTO 00000KT 4SM BR SCT004 OVC021 03/02 A2985 RMK AO2
Conditions at: KBVX (BATESVILLE , AR, US) observed 1517 UTC 17 February 2019
Temperature: 3.0°C (37°F)
Dewpoint: 2.0°C (36°F) [RH = 93%]
Pressure (altimeter): 29.85 inches Hg (1010.9 mb)
Winds: calm
Visibility: 4 miles ( 6 km)
Ceiling: 2100 feet AGL
Clouds: scattered clouds at 400 feet AGL
overcast cloud deck at 2100 feet AGL
Weather: BR  (mist)

METAR text: KBVX 171456Z AUTO 00000KT 3SM BR OVC021 02/02 A2984 RMK AO2 SLP110 T00220017 51026 FZRANO
Conditions at: KBVX (BATESVILLE , AR, US) observed 1456 UTC 17 February 2019
Temperature: 2.2°C (36°F)
Dewpoint: 1.7°C (35°F) [RH = 96%]
Pressure (altimeter): 29.84 inches Hg (1010.6 mb)
[Sea-level pressure: 1011.0 mb]
Winds: calm
Visibility: 3 miles ( 5 km)
Ceiling: 2100 feet AGL
Clouds: overcast cloud deck at 2100 feet AGL
Weather: BR  (mist)

 AIRPORT MAP

Esri Leaflet Quickstart
 RUNWAY INFORMATION
Runway 07 Runway length 6002 ft Runway width 150 ft
Runway elevation 452 ft Runway displaced threshold 0 ft Runway heading 80
Runway 25 Runway length 6002 ft Runway width 150 ft
Runway elevation 464 ft Runway displaced threshold 0 ft Runway heading 260
Runway 17 Runway length 3078 ft Runway width 60 ft
Runway elevation 435 ft Runway displaced threshold 0 ft Runway heading 181
Runway 35 Runway length 3078 ft Runway width 60 ft
Runway elevation 463 ft Runway displaced threshold 272 ft Runway heading 1

 AIRPORT FREQUENCIES
Type AWOS Name AWOS 3 Frequency 126.85 MHZ
Type CNTR Name MEMPHIS CN Frequency 126.85 MHZ
Type RDO Name JONESBORO Frequency 122.25 MHZ
Type UNIC Name CTAF/UNICO Frequency 122.8 MHZ

 AIRPORT NEAR NAVIGATION AIDS
Type NDB Name Almnd Frequency 335 KHZ



Powered by Virtual Airlines Manager [v2.6.2]